Huvudsida
METAR-TAF:

METAR-TAF

Flygplatser :

Peking, Kina

Pekings internationella flygplats

latitud: 39-56N, longitud: 116-17E, höjd: 55 m

Aktuellt väderrapport

Denna rapport gjordes för 25 minuter sedan, klockan 08:30 UTC
Vind 12 kt från syd, varierande mellan syd/sydost och syd/sydväst
Temperatur 25°C
Fuktighet 21%
Tryck 1011 hPa
Sikt 10 km eller mer
Inga moln under 1 500 m eller inga cumulonimbus

METAR: ZBAA 250830Z 19006MPS 150V210 CAVOK 25/01 Q1011 NOSIG

Tid: 16:55 (08:55 UTC)

Väderprognos

Denna rapport gjordes för 5 timmar och 35 minuter sedan, klockan 03:20 UTC
Prognos gäller från 25 kl. 06 UTC till 26 kl. 06 UTC
Vind 8 kt från syd
Sikt 10 km eller mer
Inga moln under 1 500 m eller inga cumulonimbus

TAF: ZBAA 250320Z 2506/2606 19004MPS CAVOK TX25/2507Z TN13/2521Z

Aktuella väderrapporter och prognoser från 4000 flygplatser (METAR- och TAF-rapporter).

De tillgängliga stationerna syns som gula och röda prickar på kartan.

För musen över prickarna för att se namnen på stationerna.

Klicka sedan för att få väderrapporter och prognoser.

För att ändra kartan: Klicka på de gröna knapparna med ett svart kors på för att zooma in; den gröna knappen med ett streck på för att zooma ut; eller på de gröna pilarna för angränsande kartor.


METAR-TAF: